createdAt,value
2018-04-21T00:00:46.214Z,9.53
2018-04-21T00:03:13.855Z,8.60
2018-04-21T00:05:41.446Z,8.93
2018-04-21T00:08:09.086Z,9.00
2018-04-21T00:10:36.679Z,8.73
2018-04-21T00:13:05.039Z,8.57
2018-04-21T00:15:32.666Z,9.20
2018-04-21T00:18:00.299Z,9.93
2018-04-21T00:20:28.715Z,9.70
2018-04-21T00:22:56.307Z,9.50
2018-04-21T00:25:23.959Z,9.87
2018-04-21T00:27:51.550Z,9.67
2018-04-21T00:30:19.944Z,10.27
2018-04-21T00:32:47.566Z,9.23
2018-04-21T00:35:15.200Z,9.67
2018-04-21T00:37:42.802Z,9.70
2018-04-21T00:40:11.211Z,10.20
2018-04-21T00:42:39.576Z,10.83
2018-04-21T00:45:07.935Z,9.13
2018-04-21T00:47:35.561Z,9.80
2018-04-21T00:50:03.169Z,9.57
2018-04-21T00:52:30.807Z,9.60
2018-04-21T00:54:58.402Z,9.20
2018-04-21T00:57:26.795Z,10.00
2018-04-21T00:59:55.207Z,10.83
2018-04-21T01:02:22.834Z,9.53
2018-04-21T01:04:51.226Z,10.50
2018-04-21T01:07:18.847Z,10.60
2018-04-21T01:09:46.576Z,10.70
2018-04-21T01:12:14.175Z,9.83
2018-04-21T01:14:41.805Z,11.43
2018-04-21T01:17:09.399Z,10.13
2018-04-21T01:19:37.047Z,10.67
2018-04-21T01:22:04.638Z,10.17
2018-04-21T01:24:33.035Z,10.07
2018-04-21T01:27:00.635Z,10.80
2018-04-21T01:29:28.267Z,11.50
2018-04-21T01:31:55.898Z,12.03
2018-04-21T01:34:23.490Z,11.87
2018-04-21T01:36:51.137Z,9.40
2018-04-21T01:39:19.507Z,10.80
2018-04-21T01:41:47.902Z,12.07
2018-04-21T01:44:15.523Z,12.30
2018-04-21T01:46:43.160Z,12.40
2018-04-21T01:49:10.786Z,12.90
2018-04-21T01:51:38.379Z,12.60
2018-04-21T01:54:06.035Z,10.67
2018-04-21T01:56:33.670Z,12.63
2018-04-21T01:59:01.263Z,12.43
2018-04-21T02:01:28.858Z,12.17
2018-04-21T02:03:56.506Z,12.97
2018-04-21T02:06:24.106Z,14.93
2018-04-21T02:08:52.588Z,15.37
2018-04-21T02:11:20.949Z,13.67
2018-04-21T02:13:48.594Z,15.17
2018-04-21T02:16:16.238Z,14.13
2018-04-21T02:18:43.835Z,14.20
2018-04-21T02:21:11.430Z,12.77
2018-04-21T02:23:39.074Z,13.20
2018-04-21T02:26:07.486Z,14.00
2018-04-21T02:28:35.095Z,13.00
2018-04-21T02:31:02.690Z,12.33
2018-04-21T02:33:30.326Z,12.50
2018-04-21T02:35:58.743Z,11.90
2018-04-21T02:38:26.343Z,12.10
2018-04-21T02:40:53.971Z,12.20
2018-04-21T02:43:21.575Z,12.60
2018-04-21T02:45:49.249Z,12.80
2018-04-21T02:48:16.853Z,13.37
2018-04-21T02:50:44.446Z,12.30
2018-04-21T02:53:12.074Z,12.60
2018-04-21T02:55:39.666Z,12.90
2018-04-21T02:58:07.303Z,11.83
2018-04-21T03:00:34.895Z,11.70
2018-04-21T03:03:02.551Z,10.87
2018-04-21T03:05:30.150Z,12.20
2018-04-21T03:07:58.506Z,11.00
2018-04-21T03:10:26.135Z,12.43
2018-04-21T03:12:53.731Z,12.80
2018-04-21T03:15:21.383Z,11.90
2018-04-21T03:17:48.982Z,11.67
2018-04-21T03:20:17.340Z,12.13
2018-04-21T03:22:44.983Z,11.37
2018-04-21T03:25:12.578Z,12.47
2018-04-21T03:27:40.970Z,11.03
2018-04-21T03:30:09.327Z,11.60
2018-04-21T03:32:36.974Z,12.30
2018-04-21T03:35:04.567Z,11.07
2018-04-21T03:37:32.930Z,11.57
2018-04-21T03:40:00.566Z,11.07
2018-04-21T03:42:28.164Z,11.03
2018-04-21T03:44:56.560Z,11.20
2018-04-21T03:47:24.207Z,10.97
2018-04-21T03:49:52.567Z,10.70
2018-04-21T03:52:20.183Z,11.13
2018-04-21T03:54:47.831Z,10.83
2018-04-21T03:57:15.459Z,11.03
2018-04-21T03:59:43.079Z,10.57
2018-04-21T04:02:10.706Z,10.70
2018-04-21T04:04:38.334Z,10.63
2018-04-21T04:07:05.933Z,10.87
2018-04-21T04:09:33.574Z,10.23
2018-04-21T04:12:01.972Z,10.57
2018-04-21T04:17:42.786Z,10.30
2018-04-21T04:23:11.830Z,10.10
2018-04-21T04:25:39.478Z,10.60
2018-04-21T04:28:07.119Z,11.17
2018-04-21T04:30:34.710Z,10.50
2018-04-21T04:33:02.302Z,11.40
2018-04-21T04:35:29.951Z,10.70
2018-04-21T04:37:58.311Z,10.90
2018-04-21T04:40:25.912Z,11.43
2018-04-21T04:42:53.558Z,10.73
2018-04-21T04:45:21.150Z,12.00
2018-04-21T04:47:48.746Z,12.50
2018-04-21T04:50:16.379Z,11.77
2018-04-21T04:52:44.020Z,13.60
2018-04-21T04:55:11.615Z,14.57
2018-04-21T04:57:39.243Z,14.80
2018-04-21T05:00:06.902Z,14.93
2018-04-21T05:02:34.494Z,16.30
2018-04-21T05:05:02.087Z,17.20
2018-04-21T05:07:30.478Z,14.80
2018-04-21T05:09:58.890Z,17.23
2018-04-21T05:12:26.501Z,17.40
2018-04-21T05:14:54.906Z,21.63
2018-04-21T05:17:22.499Z,29.07
2018-04-21T05:19:50.095Z,28.70
2018-04-21T05:22:17.726Z,23.00
2018-04-21T05:24:45.319Z,16.47
2018-04-21T05:27:12.951Z,14.33
2018-04-21T05:29:41.306Z,11.93
2018-04-21T05:32:08.934Z,11.20
2018-04-21T05:34:37.291Z,11.43
2018-04-21T05:37:04.940Z,11.40
2018-04-21T05:39:32.548Z,12.23
2018-04-21T05:42:00.910Z,11.73
2018-04-21T05:44:29.306Z,10.57
2018-04-21T05:46:57.688Z,11.40
2018-04-21T05:49:26.087Z,11.50
2018-04-21T05:51:53.683Z,10.80
2018-04-21T05:54:21.327Z,11.53
2018-04-21T05:56:48.915Z,10.63
2018-04-21T05:59:16.510Z,10.50
2018-04-21T06:01:44.910Z,10.20
2018-04-21T06:04:12.585Z,11.60
2018-04-21T06:06:40.225Z,12.37
2018-04-21T06:09:08.802Z,12.33
2018-04-21T06:11:37.165Z,10.30
2018-04-21T06:14:05.594Z,12.07
2018-04-21T06:16:33.207Z,12.00
2018-04-21T06:19:01.622Z,12.77
2018-04-21T06:21:30.175Z,11.97
2018-04-21T06:23:58.539Z,11.37
2018-04-21T06:26:26.278Z,12.33
2018-04-21T06:28:54.046Z,13.30
2018-04-21T06:31:21.723Z,11.90
2018-04-21T06:33:49.370Z,13.57
2018-04-21T06:36:16.998Z,13.37
2018-04-21T06:38:44.602Z,13.60
2018-04-21T06:41:12.257Z,13.20
2018-04-21T06:43:39.860Z,13.30
2018-04-21T06:46:08.285Z,13.97
2018-04-21T06:48:35.881Z,13.30
2018-04-21T06:51:04.263Z,12.87
2018-04-21T06:53:31.895Z,13.30
2018-04-21T06:55:59.507Z,14.47
2018-04-21T06:58:27.897Z,12.53
2018-04-21T07:00:55.493Z,12.50
2018-04-21T07:03:23.137Z,11.80
2018-04-21T07:05:50.751Z,13.37
2018-04-21T07:08:18.343Z,12.70
2018-04-21T07:10:46.008Z,13.60
2018-04-21T07:13:13.655Z,12.33
2018-04-21T07:15:42.049Z,12.43
2018-04-21T07:18:10.385Z,11.90
2018-04-21T07:20:38.019Z,13.13
2018-04-21T07:23:05.622Z,14.73
2018-04-21T07:25:33.254Z,13.57
2018-04-21T07:28:01.619Z,13.00
2018-04-21T07:30:29.252Z,13.57
2018-04-21T07:32:57.023Z,11.80
2018-04-21T07:35:24.658Z,12.80
2018-04-21T07:37:52.250Z,11.97
2018-04-21T07:40:20.649Z,10.73
2018-04-21T07:42:49.044Z,10.87
2018-04-21T07:45:16.663Z,11.93
2018-04-21T07:47:44.316Z,12.43
2018-04-21T07:50:12.748Z,7.63
2018-04-21T07:52:40.359Z,9.80
2018-04-21T07:55:08.889Z,10.27
2018-04-21T07:57:37.340Z,10.70
2018-04-21T08:00:04.953Z,10.80
2018-04-21T08:02:32.612Z,10.77
2018-04-21T08:05:00.219Z,9.60
2018-04-21T08:07:27.822Z,9.43
2018-04-21T08:09:55.470Z,10.20
2018-04-21T08:12:23.142Z,9.40
2018-04-21T08:14:50.771Z,9.40
2018-04-21T08:17:18.391Z,11.50
2018-04-21T08:19:46.796Z,9.90
2018-04-21T08:22:14.395Z,11.07
2018-04-21T08:24:42.062Z,11.50
2018-04-21T08:27:09.679Z,11.40
2018-04-21T08:29:37.270Z,11.80
2018-04-21T08:32:04.911Z,12.03
2018-04-21T08:34:32.551Z,13.00
2018-04-21T08:37:00.190Z,11.57
2018-04-21T08:39:27.787Z,12.70
2018-04-21T08:41:55.415Z,12.20
2018-04-21T08:44:23.010Z,12.30
2018-04-21T08:46:50.748Z,11.27
2018-04-21T08:49:18.354Z,12.60
2018-04-21T08:51:46.011Z,12.60
2018-04-21T08:54:13.611Z,11.90
2018-04-21T08:56:41.271Z,11.00
2018-04-21T08:59:08.863Z,12.23
2018-04-21T09:01:36.473Z,11.43
2018-04-21T09:04:04.217Z,12.17
2018-04-21T09:06:31.823Z,11.93
2018-04-21T09:08:59.447Z,12.60
2018-04-21T09:11:27.107Z,10.90
2018-04-21T09:13:54.743Z,12.00
2018-04-21T09:16:22.342Z,11.63
2018-04-21T09:18:49.947Z,11.77
2018-04-21T09:21:17.594Z,12.40
2018-04-21T09:23:45.204Z,12.60
2018-04-21T09:26:12.843Z,11.93
2018-04-21T09:28:40.434Z,12.63
2018-04-21T09:31:08.066Z,12.97
2018-04-21T09:33:35.686Z,12.27
2018-04-21T09:36:04.113Z,12.27
2018-04-21T09:38:31.707Z,12.20
2018-04-21T09:40:59.344Z,12.20
2018-04-21T09:43:27.008Z,12.80
2018-04-21T09:45:54.605Z,12.70
2018-04-21T09:48:22.240Z,12.63
2018-04-21T09:50:49.856Z,13.47
2018-04-21T09:53:17.455Z,13.33
2018-04-21T09:55:45.107Z,12.63
2018-04-21T09:58:12.734Z,13.47
2018-04-21T10:00:46.742Z,13.10
2018-04-21T10:03:14.495Z,12.80
2018-04-21T10:05:42.091Z,13.53
2018-04-21T10:08:09.686Z,12.60
2018-04-21T10:10:37.321Z,12.30
2018-04-21T10:13:05.685Z,12.50
2018-04-21T10:15:33.323Z,13.30
2018-04-21T10:18:00.922Z,12.90
2018-04-21T10:20:29.327Z,14.40
2018-04-21T10:22:56.923Z,11.87
2018-04-21T10:25:24.587Z,12.20
2018-04-21T10:27:52.191Z,13.13
2018-04-21T10:30:20.551Z,11.57
2018-04-21T10:32:48.223Z,11.20
2018-04-21T10:35:15.815Z,11.23
2018-04-21T10:37:43.444Z,12.13
2018-04-21T10:40:11.107Z,13.03
2018-04-21T10:42:38.762Z,10.77
2018-04-21T10:45:06.386Z,12.13
2018-04-21T10:47:34.050Z,11.10
2018-04-21T10:50:01.644Z,11.13
2018-04-21T10:52:29.811Z,10.10
2018-04-21T10:54:57.620Z,9.50
2018-04-21T10:57:25.281Z,11.07
2018-04-21T10:59:52.951Z,10.93
2018-04-21T11:02:20.697Z,12.20
2018-04-21T11:04:48.334Z,12.37
2018-04-21T11:07:17.261Z,11.53
2018-04-21T11:09:44.955Z,11.30
2018-04-21T11:12:12.622Z,11.10
2018-04-21T11:14:40.223Z,11.53
2018-04-21T11:17:08.591Z,10.50
2018-04-21T11:19:37.012Z,11.00
2018-04-21T11:22:04.646Z,10.70
2018-04-21T11:24:32.274Z,10.73
2018-04-21T11:26:59.909Z,10.70
2018-04-21T11:29:27.514Z,10.63
2018-04-21T11:31:55.919Z,11.30
2018-04-21T11:34:23.518Z,11.17
2018-04-21T11:36:51.122Z,10.40
2018-04-21T11:39:19.543Z,9.23
2018-04-21T11:41:47.134Z,9.63
2018-04-21T11:44:14.783Z,9.43
2018-04-21T11:46:42.378Z,8.30
2018-04-21T11:49:10.766Z,9.60
2018-04-21T11:51:39.128Z,9.00
2018-04-21T11:54:06.759Z,9.07
2018-04-21T11:56:34.370Z,10.23
2018-04-21T11:59:02.783Z,8.80
2018-04-21T12:01:30.383Z,9.63
2018-04-21T12:03:57.988Z,9.60
2018-04-21T12:06:25.631Z,9.27
2018-04-21T12:08:53.987Z,9.80
2018-04-21T12:11:21.582Z,8.37
2018-04-21T12:13:49.219Z,10.10
2018-04-21T12:16:16.846Z,9.57
2018-04-21T12:18:44.486Z,9.20
2018-04-21T12:21:12.133Z,8.67
2018-04-21T12:23:39.754Z,8.80
2018-04-21T12:26:07.351Z,8.07
2018-04-21T12:28:34.983Z,9.60
2018-04-21T12:31:02.600Z,8.73
2018-04-21T12:33:30.230Z,9.10
2018-04-21T12:35:58.590Z,8.63
2018-04-21T12:38:26.220Z,8.93
2018-04-21T12:40:53.807Z,7.50
2018-04-21T12:43:21.439Z,7.70
2018-04-21T12:45:49.049Z,8.77
2018-04-21T12:48:17.407Z,8.27
2018-04-21T12:50:45.054Z,7.80
2018-04-21T12:53:12.657Z,8.40
2018-04-21T12:55:41.053Z,7.60
2018-04-21T12:58:08.651Z,8.90
2018-04-21T13:00:36.270Z,7.20
2018-04-21T13:03:03.899Z,7.40
2018-04-21T13:05:31.548Z,7.23
2018-04-21T13:07:59.148Z,7.00
2018-04-21T13:10:27.558Z,7.13
2018-04-21T13:12:55.162Z,7.10
2018-04-21T13:15:22.753Z,7.50
2018-04-21T13:17:50.390Z,7.10
2018-04-21T13:20:18.036Z,6.17
2018-04-21T13:22:45.687Z,6.20
2018-04-21T13:25:13.279Z,7.20
2018-04-21T13:27:40.912Z,7.47
2018-04-21T13:30:08.506Z,6.67
2018-04-21T13:32:36.145Z,6.97
2018-04-21T13:35:03.744Z,6.53
2018-04-21T13:37:32.154Z,6.20
2018-04-21T13:39:59.946Z,6.00
2018-04-21T13:42:27.530Z,6.00
2018-04-21T13:44:55.162Z,5.30
2018-04-21T13:47:22.784Z,5.23
2018-04-21T13:49:50.406Z,4.43
2018-04-21T13:52:18.010Z,5.50
2018-04-21T13:54:45.639Z,4.73
2018-04-21T13:57:13.230Z,4.97
2018-04-21T13:59:40.871Z,5.40
2018-04-21T14:02:09.230Z,5.17
2018-04-21T14:04:36.822Z,4.77
2018-04-21T14:07:05.214Z,4.70
2018-04-21T14:09:32.798Z,5.13
2018-04-21T14:12:00.430Z,5.10
2018-04-21T14:14:28.026Z,5.00
2018-04-21T14:16:55.618Z,5.50
2018-04-21T14:19:23.243Z,4.90
2018-04-21T14:21:50.836Z,4.37
2018-04-21T14:24:18.479Z,5.00
2018-04-21T14:26:46.071Z,4.40
2018-04-21T14:29:13.668Z,4.83
2018-04-21T14:31:41.290Z,4.47
2018-04-21T14:34:08.879Z,4.70
2018-04-21T14:36:36.511Z,4.70
2018-04-21T14:39:04.156Z,4.70
2018-04-21T14:41:31.796Z,5.97
2018-04-21T14:43:59.382Z,4.53
2018-04-21T14:46:26.978Z,4.67
2018-04-21T14:48:55.420Z,4.50
2018-04-21T14:51:23.031Z,4.47
2018-04-21T14:53:51.419Z,4.50
2018-04-21T14:56:19.002Z,4.13
2018-04-21T14:58:46.639Z,3.53
2018-04-21T15:01:14.224Z,3.80
2018-04-21T15:03:41.811Z,4.07
2018-04-21T15:06:09.455Z,4.17
2018-04-21T15:08:37.066Z,4.03
2018-04-21T15:11:05.443Z,3.30
2018-04-21T15:13:33.844Z,3.73
2018-04-21T15:16:01.497Z,3.10
2018-04-21T15:18:29.086Z,3.20
2018-04-21T15:20:56.706Z,3.60
2018-04-21T15:23:25.094Z,3.27
2018-04-21T15:25:53.452Z,4.40
2018-04-21T15:28:21.042Z,3.30
2018-04-21T15:30:48.674Z,3.20
2018-04-21T15:33:16.267Z,3.53
2018-04-21T15:35:43.893Z,3.40
2018-04-21T15:38:11.479Z,2.90
2018-04-21T15:40:39.889Z,3.53
2018-04-21T15:43:07.474Z,2.60
2018-04-21T15:45:35.066Z,5.07
2018-04-21T15:48:02.696Z,3.93
2018-04-21T15:50:30.291Z,3.40
2018-04-21T15:52:57.919Z,3.40
2018-04-21T15:55:25.503Z,3.23
2018-04-21T15:57:53.139Z,3.23
2018-04-21T16:00:20.734Z,3.70
2018-04-21T16:02:48.333Z,3.13
2018-04-21T16:05:15.959Z,3.00
2018-04-21T16:07:43.547Z,3.07
2018-04-21T16:10:11.174Z,3.17
2018-04-21T16:12:38.803Z,3.30
2018-04-21T16:15:06.447Z,3.60
2018-04-21T16:17:34.039Z,3.23
2018-04-21T16:20:01.675Z,3.03
2018-04-21T16:22:29.299Z,3.63
2018-04-21T16:24:57.647Z,3.40
2018-04-21T16:27:25.312Z,3.00
2018-04-21T16:29:52.935Z,2.90
2018-04-21T16:32:20.561Z,3.20
2018-04-21T16:34:48.956Z,3.10
2018-04-21T16:37:17.358Z,2.40
2018-04-21T16:39:44.946Z,2.77
2018-04-21T16:42:12.589Z,2.97
2018-04-21T16:44:40.214Z,2.93
2018-04-21T16:47:08.567Z,2.90
2018-04-21T16:49:36.192Z,2.60
2018-04-21T16:52:03.843Z,3.53
2018-04-21T16:54:31.441Z,2.67
2018-04-21T16:56:59.099Z,3.13
2018-04-21T16:59:26.688Z,2.77
2018-04-21T17:01:54.348Z,2.63
2018-04-21T17:04:22.734Z,2.80
2018-04-21T17:06:50.358Z,2.40
2018-04-21T17:09:17.975Z,3.10
2018-04-21T17:11:45.649Z,3.17
2018-04-21T17:14:13.244Z,2.80
2018-04-21T17:16:40.830Z,2.43
2018-04-21T17:19:08.451Z,2.27
2018-04-21T17:21:36.076Z,2.80
2018-04-21T17:24:04.468Z,2.40
2018-04-21T17:26:32.075Z,2.70
2018-04-21T17:28:59.698Z,2.30
2018-04-21T17:31:27.341Z,2.23
2018-04-21T17:33:55.691Z,2.43
2018-04-21T17:36:23.455Z,3.00
2018-04-21T17:38:51.208Z,2.62
2018-04-21T17:41:19.566Z,2.53
2018-04-21T17:43:47.195Z,2.47
2018-04-21T17:46:14.815Z,2.40
2018-04-21T17:48:42.408Z,2.30
2018-04-21T17:51:10.048Z,2.50
2018-04-21T17:53:37.691Z,2.40
2018-04-21T17:56:06.043Z,2.47
2018-04-21T17:58:33.676Z,2.40
2018-04-21T18:01:01.275Z,2.67
2018-04-21T18:03:28.887Z,2.90
2018-04-21T18:05:56.562Z,3.00
2018-04-21T18:08:24.158Z,3.80
2018-04-21T18:10:51.790Z,4.60
2018-04-21T18:13:19.423Z,4.70
2018-04-21T18:15:47.012Z,5.10
2018-04-21T18:18:14.659Z,5.27
2018-04-21T18:20:42.242Z,5.00
2018-04-21T18:23:09.867Z,4.77
2018-04-21T18:25:37.553Z,4.63
2018-04-21T18:28:05.184Z,5.60
2018-04-21T18:30:32.823Z,5.07
2018-04-21T18:33:00.457Z,5.47
2018-04-21T18:35:28.050Z,4.83
2018-04-21T18:37:56.442Z,5.10
2018-04-21T18:40:24.846Z,5.60
2018-04-21T18:42:52.474Z,4.90
2018-04-21T18:45:20.866Z,5.30
2018-04-21T18:47:49.254Z,5.00
2018-04-21T18:50:16.883Z,5.53
2018-04-21T18:52:44.470Z,6.00
2018-04-21T18:55:12.849Z,6.17
2018-04-21T18:57:41.234Z,5.17
2018-04-21T19:00:08.819Z,5.87
2018-04-21T19:02:36.458Z,5.77
2018-04-21T19:05:04.060Z,6.03
2018-04-21T19:07:31.687Z,6.00
2018-04-21T19:09:59.316Z,5.87
2018-04-21T19:12:26.911Z,5.60
2018-04-21T19:14:54.536Z,6.10
2018-04-21T19:17:22.914Z,6.50
2018-04-21T19:19:50.544Z,7.20
2018-04-21T19:22:18.159Z,7.17
2018-04-21T19:24:45.821Z,6.83
2018-04-21T19:27:13.419Z,6.60
2018-04-21T19:29:41.010Z,6.30
2018-04-21T19:32:08.632Z,6.13
2018-04-21T19:34:36.283Z,6.53
2018-04-21T19:37:03.927Z,6.33
2018-04-21T19:39:31.519Z,7.40
2018-04-21T19:41:59.212Z,6.70
2018-04-21T19:44:26.798Z,7.77
2018-04-21T19:46:54.391Z,7.10
2018-04-21T19:49:22.786Z,7.70
2018-04-21T19:51:50.406Z,7.60
2018-04-21T19:54:18.137Z,9.57
2018-04-21T19:56:45.731Z,10.23
2018-04-21T19:59:13.394Z,11.60
2018-04-21T20:01:41.786Z,10.83
2018-04-21T20:04:09.503Z,9.87
2018-04-21T20:06:37.138Z,7.83
2018-04-21T20:09:04.782Z,8.00
2018-04-21T20:11:33.230Z,7.63
2018-04-21T20:14:00.875Z,7.37
2018-04-21T20:16:28.467Z,7.00
2018-04-21T20:18:56.062Z,7.50
2018-04-21T20:21:23.698Z,7.07
2018-04-21T20:23:51.297Z,7.43
2018-04-21T20:26:18.929Z,7.43
2018-04-21T20:28:46.514Z,7.47
2018-04-21T20:31:14.114Z,7.63
2018-04-21T20:33:41.749Z,7.90
2018-04-21T20:36:10.291Z,8.03
2018-04-21T20:38:37.930Z,8.53
2018-04-21T20:41:05.546Z,8.00
2018-04-21T20:43:33.184Z,8.90
2018-04-21T20:46:00.794Z,8.10
2018-04-21T20:48:28.408Z,9.23
2018-04-21T20:50:56.029Z,9.13
2018-04-21T20:53:23.627Z,8.63
2018-04-21T20:55:51.275Z,8.87
2018-04-21T20:58:18.867Z,8.77
2018-04-21T21:00:46.481Z,9.43
2018-04-21T21:03:14.139Z,8.93
2018-04-21T21:05:41.726Z,9.23
2018-04-21T21:08:09.355Z,10.13
2018-04-21T21:10:39.706Z,10.40
2018-04-21T21:13:07.299Z,10.87
2018-04-21T21:15:34.941Z,10.10
2018-04-21T21:18:03.494Z,10.10
2018-04-21T21:20:31.498Z,10.17
2018-04-21T21:22:59.176Z,10.80
2018-04-21T21:25:26.819Z,10.83
2018-04-21T21:27:54.512Z,10.00
2018-04-21T21:30:22.087Z,9.83
2018-04-21T21:32:50.498Z,9.33
2018-04-21T21:35:18.083Z,9.57
2018-04-21T21:37:45.726Z,9.50
2018-04-21T21:40:13.346Z,9.67
2018-04-21T21:42:41.748Z,9.20
2018-04-21T21:45:10.127Z,9.47
2018-04-21T21:47:37.788Z,9.77
2018-04-21T21:50:05.387Z,9.70
2018-04-21T21:52:33.019Z,10.13
2018-04-21T21:55:00.651Z,9.87
2018-04-21T21:57:28.243Z,9.80
2018-04-21T21:59:55.878Z,10.20
2018-04-21T22:02:24.231Z,9.67
2018-04-21T22:04:51.975Z,9.33
2018-04-21T22:07:25.322Z,9.03
2018-04-21T22:09:53.710Z,8.97
2018-04-21T22:12:22.107Z,9.53
2018-04-21T22:14:49.695Z,9.10
2018-04-21T22:17:17.319Z,9.87
2018-04-21T22:19:44.947Z,9.70
2018-04-21T22:22:12.586Z,9.77
2018-04-21T22:24:40.174Z,9.63
2018-04-21T22:27:08.008Z,9.80
2018-04-21T22:29:35.634Z,9.60
2018-04-21T22:32:03.227Z,10.50
2018-04-21T22:34:30.854Z,10.10
2018-04-21T22:36:58.546Z,9.43
2018-04-21T22:39:26.179Z,10.60
2018-04-21T22:41:53.771Z,10.10
2018-04-21T22:44:21.398Z,9.27
2018-04-21T22:46:49.795Z,10.17
2018-04-21T22:49:17.380Z,8.33
2018-04-21T22:51:45.051Z,11.73
2018-04-21T22:54:12.651Z,12.50
2018-04-21T22:56:41.010Z,14.23
2018-04-21T22:59:08.646Z,14.77
2018-04-21T23:01:36.274Z,13.50
2018-04-21T23:04:03.884Z,12.50
2018-04-21T23:06:31.529Z,10.33
2018-04-21T23:08:59.126Z,9.97
2018-04-21T23:11:26.731Z,9.20
2018-04-21T23:13:54.359Z,9.63
2018-04-21T23:16:22.718Z,9.60
2018-04-21T23:18:50.338Z,8.93
2018-04-21T23:21:18.020Z,8.40
2018-04-21T23:23:45.652Z,9.00
2018-04-21T23:26:13.342Z,9.50
2018-04-21T23:28:40.930Z,9.20
2018-04-21T23:31:08.560Z,9.90
2018-04-21T23:33:36.179Z,10.40
2018-04-21T23:36:04.538Z,10.07
2018-04-21T23:38:32.207Z,9.13
2018-04-21T23:40:59.802Z,10.23
2018-04-21T23:43:27.383Z,9.10
2018-04-21T23:45:55.050Z,9.20
2018-04-21T23:48:22.671Z,9.30
2018-04-21T23:50:51.036Z,9.43
2018-04-21T23:53:19.454Z,9.67
2018-04-21T23:55:47.054Z,9.50
2018-04-21T23:58:14.688Z,9.90
